Time;durP1;ratioP1;P1;durP2;ratioP2;P2;SDS_P1;SDS_P2;PMS_P1;PMS_P2;Temp;Humidity;BMP_temperature;BMP_pressure;BME280_temperature;BME280_humidity;BME280_pressure;Samples;Min_cycle;Max_cycle;Signal;HPM_P1;HPM_P2
2023/05/18 00:00:43;;;;;;;2.30;2.00;;;;;;;16.95;72.79;94125.75;5131631;28;20188;-46
2023/05/18 00:03:10;;;;;;;2.17;2.07;;;;;;;16.94;72.67;94121.59;5130042;28;20200;-45
2023/05/18 00:05:37;;;;;;;2.20;1.87;;;;;;;16.93;72.77;94125.16;5130503;28;20576;-45
2023/05/18 00:08:04;;;;;;;2.17;1.97;;;;;;;16.92;72.86;94123.56;5130301;28;20188;-45
2023/05/18 00:10:32;;;;;;;2.50;1.80;;;;;;;16.88;72.79;94119.75;5130892;28;20188;-47
2023/05/18 00:12:59;;;;;;;2.43;2.23;;;;;;;16.92;72.86;94131.28;5133151;27;21104;-45
2023/05/18 00:15:25;;;;;;;1.87;1.73;;;;;;;16.88;72.85;94128.31;5133954;27;20265;-46
2023/05/18 00:17:52;;;;;;;2.97;2.30;;;;;;;16.89;73.01;94136.88;5134022;27;20196;-46
2023/05/18 00:20:20;;;;;;;4.23;2.00;;;;;;;16.88;73.02;94124.91;5134358;27;20220;-45
2023/05/18 00:22:49;;;;;;;1.93;1.83;;;;;;;16.88;72.89;94136.06;5134456;27;20184;-50
2023/05/18 00:25:16;;;;;;;2.03;1.93;;;;;;;16.87;72.85;94136.25;5133767;27;20711;-48
2023/05/18 00:27:44;;;;;;;1.90;1.80;;;;;;;16.86;72.97;94130.28;5134043;27;20219;-43
2023/05/18 00:30:12;;;;;;;1.60;1.50;;;;;;;16.86;73.00;94132.06;5134142;27;20176;-45
2023/05/18 00:32:39;;;;;;;2.53;1.83;;;;;;;16.85;72.97;94131.28;5133904;27;20577;-46
2023/05/18 00:35:06;;;;;;;1.70;1.60;;;;;;;16.83;73.06;94128.06;5134250;27;20191;-46
2023/05/18 00:37:33;;;;;;;1.70;1.60;;;;;;;16.82;73.07;94126.47;5133929;27;20184;-44
2023/05/18 00:40:00;;;;;;;1.97;1.87;;;;;;;16.83;72.99;94130.66;5133602;27;20564;-44
2023/05/18 00:42:27;;;;;;;1.77;1.67;;;;;;;16.83;73.10;94132.44;5133672;27;20181;-44
2023/05/18 00:44:55;;;;;;;1.70;1.60;;;;;;;16.80;73.05;94134.44;5133603;27;20262;-44
2023/05/18 00:47:22;;;;;;;1.53;1.43;;;;;;;16.79;73.15;94130.22;5134076;27;20220;-45
2023/05/18 00:49:49;;;;;;;2.20;1.50;;;;;;;16.80;73.20;94124.09;5133775;27;20578;-45
2023/05/18 00:52:16;;;;;;;1.43;1.43;;;;;;;16.80;73.16;94125.88;5133803;27;20273;-45
2023/05/18 00:54:43;;;;;;;1.73;1.60;;;;;;;16.79;73.23;94119.91;5133246;27;20196;-45
2023/05/18 00:57:10;;;;;;;1.93;1.70;;;;;;;16.78;73.30;94117.50;5134432;27;20252;-44
2023/05/18 00:59:37;;;;;;;1.70;1.60;;;;;;;16.78;73.11;94104.59;5134047;27;20275;-46
2023/05/18 01:02:08;;;;;;;1.83;1.73;;;;;;;16.76;73.41;94106.59;5135359;27;20215;-45
2023/05/18 01:04:36;;;;;;;1.43;1.40;;;;;;;16.76;73.43;94106.59;5134331;27;20653;-44
2023/05/18 01:07:05;;;;;;;1.60;1.50;;;;;;;16.61;73.33;94091.16;5133189;27;20212;-45
2023/05/18 01:09:32;;;;;;;1.73;1.60;;;;;;;16.74;73.31;94122.25;5133550;27;20393;-42
2023/05/18 01:12:07;;;;;;;2.47;2.27;;;;;;;16.73;73.33;94118.09;5133394;27;20664;-45
2023/05/18 01:14:44;;;;;;;1.47;1.37;;;;;;;16.64;73.40;94098.53;5133366;27;20184;-46
2023/05/18 01:17:23;;;;;;;1.57;1.47;;;;;;;16.59;73.39;94100.91;5133733;27;20267;-44
2023/05/18 01:20:22;;;;;;;1.83;1.67;;;;;;;16.65;73.67;94102.72;5112363;28;20196;-43
2023/05/18 01:23:00;;;;;;;1.53;1.50;;;;;;;16.70;73.64;94120.22;5112516;28;20231;-43
2023/05/18 01:25:35;;;;;;;1.53;1.43;;;;;;;16.68;73.57;94120.41;5111960;28;20243;-45
2023/05/18 01:28:08;;;;;;;1.37;1.33;;;;;;;16.69;73.72;94123.78;5112223;28;20224;-44
2023/05/18 01:30:40;;;;;;;1.67;1.57;;;;;;;16.67;73.62;94112.88;5112735;28;20189;-44
2023/05/18 01:33:09;;;;;;;2.10;1.70;;;;;;;16.67;73.88;94126.56;5121269;27;20192;-43
2023/05/18 01:35:36;;;;;;;1.63;1.53;;;;;;;16.65;73.67;94115.63;5133197;27;20280;-45
2023/05/18 01:38:03;;;;;;;1.50;1.40;;;;;;;16.67;73.82;94121.41;5132339;27;20203;-45
2023/05/18 01:40:35;;;;;;;1.60;1.50;;;;;;;16.18;73.81;94044.03;5133201;27;20561;-44
2023/05/18 01:43:11;;;;;;;1.37;1.37;;;;;;;16.68;73.73;94122.19;5132826;27;20192;-45
2023/05/18 01:45:42;;;;;;;2.07;1.50;;;;;;;16.68;73.83;94122.19;5132512;27;20187;-45
2023/05/18 01:48:11;;;;;;;1.30;1.30;;;;;;;16.66;73.83;94126.75;5132009;27;20220;-44
2023/05/18 01:50:43;;;;;;;1.33;1.30;;;;;;;16.66;74.00;94117.22;5132440;27;20657;-46
2023/05/18 01:53:18;;;;;;;1.30;1.30;;;;;;;16.65;73.85;94113.03;5132356;27;20181;-43
2023/05/18 01:55:48;;;;;;;1.60;1.40;;;;;;;16.65;73.84;94119.97;5132508;27;20188;-46
2023/05/18 01:58:17;;;;;;;1.70;1.60;;;;;;;16.44;73.65;94095.03;5132083;27;20192;-45
2023/05/18 02:00:46;;;;;;;1.40;1.40;;;;;;;16.64;73.93;94121.78;5131883;27;20672;-45
2023/05/18 02:03:13;;;;;;;1.50;1.47;;;;;;;16.63;73.96;94127.94;5132839;27;20195;-45
2023/05/18 02:05:40;;;;;;;1.90;1.50;;;;;;;16.63;74.06;94129.72;5134480;27;20184;-44
2023/05/18 02:08:07;;;;;;;2.67;1.67;;;;;;;16.63;74.07;94133.09;5132146;27;20220;-44
2023/05/18 02:10:34;;;;;;;2.67;1.50;;;;;;;16.61;74.10;94119.56;5132249;27;20197;-46
2023/05/18 02:13:00;;;;;;;1.60;1.50;;;;;;;16.62;74.20;94130.69;5131781;27;20180;-45
2023/05/18 02:15:29;;;;;;;1.40;1.30;;;;;;;16.60;74.18;94130.09;5131767;27;20237;-46
2023/05/18 02:17:56;;;;;;;1.50;1.40;;;;;;;16.58;74.14;94124.31;5131858;27;20192;-44
2023/05/18 02:20:23;;;;;;;1.80;1.70;;;;;;;16.55;74.11;94125.50;5131867;27;20711;-44
2023/05/18 02:22:50;;;;;;;1.43;1.33;;;;;;;16.58;74.18;94130.28;5131903;27;20203;-45
2023/05/18 02:25:17;;;;;;;1.70;1.60;;;;;;;16.56;74.16;94134.81;5131620;27;20314;-48
2023/05/18 02:27:44;;;;;;;1.57;1.50;;;;;;;16.56;74.29;94129.66;5131247;27;20204;-45
2023/05/18 02:30:13;;;;;;;1.37;1.37;;;;;;;16.51;74.24;94121.69;5131924;27;20260;-46
2023/05/18 02:32:41;;;;;;;1.27;1.20;;;;;;;16.51;74.21;94126.84;5131947;27;20188;-46
2023/05/18 02:35:09;;;;;;;1.63;1.50;;;;;;;16.50;74.20;94117.53;5131229;27;20193;-45
2023/05/18 02:37:38;;;;;;;1.73;1.63;;;;;;;16.54;74.27;94127.28;5130796;27;20220;-45
2023/05/18 02:40:07;;;;;;;1.50;1.40;;;;;;;16.54;74.15;94129.84;5131488;27;20180;-45
2023/05/18 02:42:34;;;;;;;1.50;1.40;;;;;;;16.50;74.56;94123.47;5131523;27;20203;-50
2023/05/18 02:45:01;;;;;;;1.63;1.53;;;;;;;16.52;74.28;94133.59;5131589;27;20191;-45
2023/05/18 02:47:28;;;;;;;1.50;1.40;;;;;;;16.51;74.46;94137.16;5132798;27;20724;-45
2023/05/18 02:49:56;;;;;;;2.10;1.83;;;;;;;16.30;74.32;94107.03;5132017;27;20226;-45
2023/05/18 02:52:23;;;;;;;2.17;1.60;;;;;;;16.30;74.49;94118.16;5131021;27;20200;-46
2023/05/18 02:54:50;;;;;;;1.50;1.50;;;;;;;16.30;74.14;94113.00;5131261;27;20802;-46
2023/05/18 02:57:16;;;;;;;1.60;1.50;;;;;;;16.51;74.33;94153.47;5130800;27;20660;-46
2023/05/18 02:59:43;;;;;;;1.40;1.40;;;;;;;16.51;74.47;94155.25;5131087;27;20598;-43
2023/05/18 03:02:13;;;;;;;1.30;1.30;;;;;;;16.51;74.42;94160.41;5131075;27;20249;-45
2023/05/18 03:04:40;;;;;;;1.43;1.40;;;;;;;16.52;74.34;94164.56;5131320;27;20270;-47
2023/05/18 03:07:09;;;;;;;1.60;1.50;;;;;;;16.45;74.41;94159.38;5130210;27;20308;-45
2023/05/18 03:09:36;;;;;;;1.70;1.60;;;;;;;16.42;74.45;94159.75;5130873;27;20279;-45
2023/05/18 03:12:02;;;;;;;1.40;1.40;;;;;;;16.53;74.46;94179.88;5130939;27;20196;-46
2023/05/18 03:14:29;;;;;;;1.50;1.40;;;;;;;16.54;74.38;94183.28;5131357;27;20180;-45
2023/05/18 03:16:56;;;;;;;1.60;1.50;;;;;;;16.55;74.39;94187.44;5130580;27;20184;-45
2023/05/18 03:19:23;;;;;;;1.50;1.40;;;;;;;16.54;74.53;94194.38;5131261;27;20192;-46
2023/05/18 03:21:50;;;;;;;1.53;1.43;;;;;;;16.54;74.41;94198.75;5130627;27;20605;-47
2023/05/18 03:24:19;;;;;;;2.07;1.47;;;;;;;16.54;74.58;94207.31;5130763;27;20661;-46
2023/05/18 03:26:45;;;;;;;1.63;1.53;;;;;;;16.13;74.49;94137.47;5130426;27;20184;-42
2023/05/18 03:29:16;;;;;;;1.40;1.40;;;;;;;16.55;74.46;94203.72;5130680;27;20180;-45
2023/05/18 03:31:43;;;;;;;1.63;1.47;;;;;;;16.55;74.55;94202.94;5130627;27;20192;-45
2023/05/18 03:34:10;;;;;;;1.90;1.40;;;;;;;16.17;74.58;94145.63;5130435;27;20191;-46
2023/05/18 03:36:37;;;;;;;1.60;1.50;;;;;;;16.56;74.54;94214.84;5130713;27;20197;-45
2023/05/18 03:39:05;;;;;;;1.70;1.60;;;;;;;16.57;74.43;94208.69;5130715;27;20196;-45
2023/05/18 03:41:33;;;;;;;1.30;1.30;;;;;;;16.56;74.55;94207.91;5130716;27;20714;-46
2023/05/18 03:44:00;;;;;;;1.67;1.57;;;;;;;16.56;74.77;94207.91;5132437;27;20200;-45
2023/05/18 03:46:27;;;;;;;2.00;1.53;;;;;;;16.58;74.46;94212.88;5133298;27;20188;-45
2023/05/18 03:48:54;;;;;;;1.40;1.40;;;;;;;16.55;74.64;94208.09;5134181;27;20296;-44
2023/05/18 03:51:20;;;;;;;1.90;1.80;;;;;;;16.59;74.57;94211.09;5130432;27;20208;-45
2023/05/18 03:53:47;;;;;;;1.80;1.70;;;;;;;16.61;74.49;94216.88;5130398;27;20180;-43
2023/05/18 03:56:14;;;;;;;1.60;1.47;;;;;;;16.63;74.37;94217.50;5130590;27;20195;-44
2023/05/18 03:58:45;;;;;;;1.73;1.63;;;;;;;16.61;74.39;94211.69;5130050;27;20252;-48
2023/05/18 04:01:11;;;;;;;1.70;1.60;;;;;;;16.66;74.42;94222.25;5130356;27;20248;-46
2023/05/18 04:03:39;;;;;;;1.93;1.83;;;;;;;16.68;74.38;94228.06;5129778;27;20572;-44
2023/05/18 04:06:08;;;;;;;1.83;1.60;;;;;;;16.70;74.38;94232.03;5130398;28;20290;-45
2023/05/18 04:08:35;;;;;;;3.07;1.63;;;;;;;16.72;74.37;94229.28;5129795;28;20269;-45
2023/05/18 04:11:03;;;;;;;1.97;1.73;;;;;;;16.73;74.30;94230.91;5130623;28;20224;-45
2023/05/18 04:13:30;;;;;;;2.00;1.80;;;;;;;16.76;74.23;94236.50;5130257;28;20176;-46
2023/05/18 04:15:58;;;;;;;1.87;1.53;;;;;;;16.64;74.36;94216.50;5129672;28;20188;-47
2023/05/18 04:18:28;;;;;;;2.00;1.90;;;;;;;16.82;74.35;94239.31;5129720;28;20309;-46
2023/05/18 04:20:55;;;;;;;1.97;1.87;;;;;;;16.76;74.38;94233.91;5129844;28;20180;-44
2023/05/18 04:23:22;;;;;;;3.07;2.13;;;;;;;16.86;74.43;94237.97;5130066;28;20246;-45
2023/05/18 04:25:49;;;;;;;1.90;1.80;;;;;;;16.89;74.39;94237.59;5129015;28;20699;-45
2023/05/18 04:28:16;;;;;;;2.10;1.90;;;;;;;16.91;74.34;94233.03;5129870;28;20235;-46
2023/05/18 04:30:42;;;;;;;2.40;2.10;;;;;;;16.93;74.40;94238.81;5128992;28;20263;-45
2023/05/18 04:33:12;;;;;;;2.00;1.80;;;;;;;16.96;74.17;94236.63;5129125;28;20180;-45
2023/05/18 04:35:38;;;;;;;2.40;1.73;;;;;;;16.98;74.11;94229.50;5129772;28;20710;-44
2023/05/18 04:38:05;;;;;;;1.97;1.87;;;;;;;16.98;74.05;94229.50;5129385;28;20223;-47
2023/05/18 04:40:33;;;;;;;5.13;1.80;;;;;;;17.03;74.04;94234.09;5129794;28;20196;-46
2023/05/18 04:42:59;;;;;;;2.10;2.00;;;;;;;17.07;73.92;94240.50;5129285;28;20639;-46
2023/05/18 04:45:26;;;;;;;5.20;1.90;;;;;;;17.15;73.81;94248.09;5129639;28;20207;-47
2023/05/18 04:47:53;;;;;;;1.90;1.80;;;;;;;17.18;73.68;94239.97;5129867;28;20240;-45
2023/05/18 04:50:23;;;;;;;1.87;1.67;;;;;;;17.27;73.77;94246.59;5129391;28;20203;-46
2023/05/18 04:52:51;;;;;;;2.20;2.00;;;;;;;17.31;73.67;94244.41;5129653;28;20191;-45
2023/05/18 04:55:24;;;;;;;1.83;1.73;;;;;;;17.37;73.51;94253.22;5129654;28;20188;-45
2023/05/18 04:57:52;;;;;;;2.10;1.83;;;;;;;17.38;73.52;94253.00;5129039;28;20208;-46
2023/05/18 05:00:20;;;;;;;3.00;2.13;;;;;;;17.40;73.56;94257.97;5131991;27;20177;-45
2023/05/18 05:02:47;;;;;;;4.17;1.80;;;;;;;17.43;73.53;94260.19;5132925;27;20184;-48
2023/05/18 05:05:13;;;;;;;1.97;1.87;;;;;;;17.43;73.37;94268.75;5132794;27;20184;-48
2023/05/18 05:07:41;;;;;;;2.33;1.83;;;;;;;17.49;73.36;94270.59;5133659;27;20223;-45
2023/05/18 05:10:09;;;;;;;1.97;1.80;;;;;;;17.45;73.25;94264.19;5133441;27;20580;-47
2023/05/18 05:12:37;;;;;;;2.00;1.80;;;;;;;17.53;73.41;94274.38;5133318;27;20195;-45
2023/05/18 05:15:04;;;;;;;2.20;2.00;;;;;;;17.47;73.48;94264.00;5133411;27;20192;-46
2023/05/18 05:17:31;;;;;;;2.07;1.93;;;;;;;17.55;73.37;94277.56;5133106;27;20192;-44
2023/05/18 05:19:58;;;;;;;2.07;1.97;;;;;;;17.53;73.50;94279.56;5132942;27;20195;-45
2023/05/18 05:22:25;;;;;;;2.27;1.97;;;;;;;17.42;73.47;94264.56;5129292;27;20192;-42
2023/05/18 05:24:53;;;;;;;2.30;2.20;;;;;;;17.46;73.50;94273.53;5130600;27;20220;-43
2023/05/18 05:27:21;;;;;;;1.90;1.80;;;;;;;17.54;73.53;94295.88;5130662;27;20791;-47
2023/05/18 05:29:49;;;;;;;2.20;2.00;;;;;;;17.52;73.50;94300.41;5131795;27;20234;-43
2023/05/18 05:32:16;;;;;;;2.77;2.20;;;;;;;17.51;73.56;94298.81;5131958;27;20245;-43
2023/05/18 05:34:45;;;;;;;2.00;1.90;;;;;;;17.48;73.69;94300.00;5131319;27;20192;-44
2023/05/18 05:37:12;;;;;;;2.10;2.00;;;;;;;17.39;73.55;94287.41;5131773;27;20245;-44
2023/05/18 05:39:39;;;;;;;6.77;2.20;;;;;;;17.24;73.62;94266.84;5131934;27;20192;-45
2023/05/18 05:42:08;;;;;;;2.03;1.93;;;;;;;17.41;73.68;94299.16;5132258;27;20212;-42
2023/05/18 05:44:35;;;;;;;3.00;2.50;;;;;;;17.40;73.61;94301.91;5131577;27;20628;-43
2023/05/18 05:47:02;;;;;;;2.07;1.97;;;;;;;17.34;73.82;94293.16;5131628;27;20192;-44
2023/05/18 05:49:29;;;;;;;5.33;2.00;;;;;;;17.39;73.71;94310.66;5131438;27;20227;-42
2023/05/18 05:51:56;;;;;;;2.30;2.20;;;;;;;17.40;73.71;94313.09;5131707;27;20628;-45
2023/05/18 05:54:22;;;;;;;2.10;1.97;;;;;;;17.39;73.52;94313.25;5131778;27;20196;-41
2023/05/18 05:56:49;;;;;;;2.43;2.07;;;;;;;17.26;73.80;94298.44;5131730;27;20192;-42
2023/05/18 05:59:18;;;;;;;2.57;2.37;;;;;;;17.37;73.95;94307.50;5130967;27;20196;-45
2023/05/18 06:01:44;;;;;;;2.20;2.10;;;;;;;17.40;73.79;94320.84;5131596;27;20192;-42
2023/05/18 06:04:11;;;;;;;2.73;2.37;;;;;;;17.24;73.89;94296.06;5130945;27;20199;-43
2023/05/18 06:06:38;;;;;;;3.10;2.53;;;;;;;17.39;73.95;94314.06;5131494;27;20188;-45
2023/05/18 06:09:05;;;;;;;2.60;2.40;;;;;;;17.41;73.86;94316.47;5130628;27;20272;-44
2023/05/18 06:11:32;;;;;;;2.60;2.37;;;;;;;17.41;73.97;94319.06;5131146;27;20600;-42
2023/05/18 06:13:59;;;;;;;2.53;2.33;;;;;;;17.42;73.90;94321.44;5130401;27;20187;-46
2023/05/18 06:16:28;;;;;;;2.50;2.30;;;;;;;17.43;74.01;94312.69;5130699;27;20188;-45
2023/05/18 06:18:54;;;;;;;5.27;2.40;;;;;;;17.44;73.87;94324.66;5131003;27;20193;-44
2023/05/18 06:21:21;;;;;;;2.53;2.20;;;;;;;17.44;73.90;94329.81;5132227;27;20612;-46
2023/05/18 06:23:48;;;;;;;3.97;2.30;;;;;;;17.43;74.02;94330.78;5130612;27;20192;-46
2023/05/18 06:26:15;;;;;;;3.33;2.20;;;;;;;17.45;73.94;94328.03;5130261;27;20216;-43
2023/05/18 06:28:42;;;;;;;2.93;2.30;;;;;;;17.45;73.97;94330.63;5130661;27;20204;-44
2023/05/18 06:31:09;;;;;;;3.70;2.83;;;;;;;17.51;73.86;94325.47;5130788;27;20275;-42
2023/05/18 06:33:37;;;;;;;2.33;2.13;;;;;;;17.53;73.88;94333.06;5130877;27;20196;-44
2023/05/18 06:36:05;;;;;;;3.27;2.37;;;;;;;17.59;73.83;94334.88;5130954;27;20588;-44
2023/05/18 06:38:31;;;;;;;2.57;2.40;;;;;;;17.65;73.74;94338.47;5130884;27;20195;-45
2023/05/18 06:40:58;;;;;;;2.37;2.17;;;;;;;17.69;73.73;94347.47;5130391;27;20626;-47
2023/05/18 06:43:27;;;;;;;2.23;2.13;;;;;;;17.74;73.60;94345.13;5130622;27;20713;-46
2023/05/18 06:45:54;;;;;;;2.60;2.40;;;;;;;17.77;73.60;94342.97;5130352;27;20672;-43
2023/05/18 06:48:24;;;;;;;3.07;2.53;;;;;;;17.87;73.31;94350.38;5130093;27;20211;-45
2023/05/18 06:50:52;;;;;;;2.67;2.40;;;;;;;17.93;73.19;94344.47;5128566;27;20199;-45
2023/05/18 06:53:19;;;;;;;3.17;2.47;;;;;;;18.04;72.95;94343.91;5128153;27;20193;-45
2023/05/18 06:55:46;;;;;;;2.53;2.33;;;;;;;18.17;72.89;94350.13;5130328;27;20992;-47
2023/05/18 06:58:13;;;;;;;2.37;2.23;;;;;;;18.16;72.61;94338.97;5127763;27;20189;-43
2023/05/18 07:00:40;;;;;;;2.80;2.60;;;;;;;18.41;72.37;94365.16;5127233;27;20180;-46
2023/05/18 07:03:07;;;;;;;2.17;2.07;;;;;;;18.50;72.26;94364.00;5130289;27;20193;-46
2023/05/18 07:05:34;;;;;;;4.50;3.00;;;;;;;18.56;72.18;94370.19;5132236;27;20188;-45
2023/05/18 07:08:03;;;;;;;2.40;2.23;;;;;;;18.53;72.20;94365.41;5129917;27;20652;-45
2023/05/18 07:10:30;;;;;;;2.63;2.43;;;;;;;18.61;72.15;94378.19;5129867;27;20672;-46
2023/05/18 07:12:57;;;;;;;4.60;2.63;;;;;;;18.61;72.01;94374.78;5129560;27;20192;-45
2023/05/18 07:15:25;;;;;;;2.93;2.73;;;;;;;18.59;72.19;94379.38;5130367;27;20184;-43
2023/05/18 07:17:52;;;;;;;3.10;2.80;;;;;;;18.58;72.33;94377.78;5125637;27;20280;-46
2023/05/18 07:20:19;;;;;;;3.13;2.33;;;;;;;18.55;72.43;94379.75;5124254;27;20231;-43
2023/05/18 07:22:45;;;;;;;2.60;2.40;;;;;;;18.48;72.43;94386.72;5126381;27;20192;-46
2023/05/18 07:25:13;;;;;;;2.60;2.40;;;;;;;18.46;72.44;94386.09;5127187;27;20684;-45
2023/05/18 07:27:40;;;;;;;2.90;2.43;;;;;;;18.47;72.67;94398.03;5127470;27;20195;-46
2023/05/18 07:30:08;;;;;;;3.10;2.80;;;;;;;18.44;72.66;94400.25;5126559;27;20231;-46
2023/05/18 07:32:35;;;;;;;3.37;3.07;;;;;;;18.42;72.59;94400.41;5126637;27;20180;-49
2023/05/18 07:35:02;;;;;;;3.03;2.67;;;;;;;18.40;72.66;94399.84;5126967;27;20579;-45
2023/05/18 07:37:29;;;;;;;3.30;3.00;;;;;;;18.38;72.60;94404.38;5127020;27;20192;-43
2023/05/18 07:39:56;;;;;;;3.97;3.17;;;;;;;18.29;72.68;94395.97;5126714;27;20241;-44
2023/05/18 07:42:24;;;;;;;4.33;3.20;;;;;;;18.35;72.44;94406.56;5126638;27;20636;-44
2023/05/18 07:44:51;;;;;;;3.47;3.17;;;;;;;18.33;72.37;94411.94;5127280;27;20189;-45
2023/05/18 07:47:20;;;;;;;6.27;3.40;;;;;;;18.29;72.31;94400.38;5126387;27;20184;-44
2023/05/18 07:49:47;;;;;;;3.60;3.37;;;;;;;18.12;72.37;94384.34;5127295;27;20212;-44
2023/05/18 07:52:13;;;;;;;3.20;3.00;;;;;;;18.30;72.05;94420.06;5124339;27;20248;-46
2023/05/18 07:54:40;;;;;;;3.40;3.10;;;;;;;18.33;71.73;94421.50;5126424;27;20887;-44
2023/05/18 07:57:07;;;;;;;4.50;3.80;;;;;;;18.32;71.58;94432.84;5124551;27;20192;-44
2023/05/18 07:59:35;;;;;;;4.30;3.90;;;;;;;18.29;71.58;94427.03;5126632;27;20268;-43
2023/05/18 08:02:02;;;;;;;7.00;4.13;;;;;;;18.16;71.38;94410.66;5126266;27;20281;-43
2023/05/18 08:04:29;;;;;;;6.20;4.53;;;;;;;18.27;71.30;94431.63;5126921;28;20579;-44
2023/05/18 08:06:59;;;;;;;9.37;4.60;;;;;;;18.26;71.21;94431.81;5126574;28;20316;-42
2023/05/18 08:09:26;;;;;;;4.40;4.00;;;;;;;18.24;71.06;94444.16;5125308;28;20211;-41
2023/05/18 08:11:53;;;;;;;5.37;4.00;;;;;;;18.23;70.92;94442.56;5126276;28;20196;-44
2023/05/18 08:14:20;;;;;;;5.20;4.33;;;;;;;18.20;70.75;94443.72;5124129;28;20215;-42
2023/05/18 08:16:48;;;;;;;5.80;4.50;;;;;;;18.21;70.85;94455.66;5126372;28;20196;-42
2023/05/18 08:19:15;;;;;;;4.47;4.07;;;;;;;18.20;70.78;94453.28;5127127;28;20192;-43
2023/05/18 08:21:42;;;;;;;3.90;3.60;;;;;;;18.17;70.61;94451.88;5126816;28;20262;-42
2023/05/18 08:24:09;;;;;;;7.17;4.70;;;;;;;18.15;70.64;94459.03;5126543;28;20253;-42
2023/05/18 08:26:36;;;;;;;6.07;4.10;;;;;;;18.16;70.53;94470.97;5126051;28;20818;-46
2023/05/18 08:29:08;;;;;;;5.03;4.17;;;;;;;18.17;70.63;94466.59;5126599;28;20208;-43
2023/05/18 08:31:35;;;;;;;4.37;3.97;;;;;;;18.11;70.63;94464.78;5125533;28;20189;-42
2023/05/18 08:34:04;;;;;;;5.40;4.73;;;;;;;18.11;70.17;94472.53;5127194;27;20553;-47
2023/05/18 08:36:31;;;;;;;5.10;4.43;;;;;;;18.09;70.44;94477.09;5130465;27;20196;-42
2023/05/18 08:38:58;;;;;;;8.97;4.37;;;;;;;18.08;70.44;94475.50;5130406;27;20293;-45
2023/05/18 08:41:29;;;;;;;5.43;4.87;;;;;;;18.06;70.46;94478.28;5130680;27;20196;-46
2023/05/18 08:44:03;;;;;;;6.67;4.87;;;;;;;18.03;70.27;94478.66;5130425;27;20260;-42
2023/05/18 08:46:34;;;;;;;5.23;4.50;;;;;;;18.03;70.23;94483.84;5130257;27;20196;-41
2023/05/18 08:49:04;;;;;;;5.33;4.83;;;;;;;18.03;70.11;94487.22;5127794;27;20238;-43
2023/05/18 08:51:36;;;;;;;5.80;4.77;;;;;;;18.00;69.94;94486.78;5130129;27;20883;-43
2023/05/18 08:54:05;;;;;;;6.33;4.23;;;;;;;17.80;69.99;94464.16;5130670;27;20192;-42
2023/05/18 08:56:33;;;;;;;5.77;4.63;;;;;;;18.02;69.84;94508.13;5129781;27;20279;-42
2023/05/18 08:59:06;;;;;;;7.13;4.90;;;;;;;18.00;69.76;94503.13;5130338;27;20578;-41
2023/05/18 09:01:33;;;;;;;5.97;4.60;;;;;;;18.03;69.74;94505.34;5129847;27;20188;-43
2023/05/18 09:04:01;;;;;;;6.37;5.03;;;;;;;18.02;69.70;94513.28;5129904;27;20188;-43
2023/05/18 09:06:29;;;;;;;6.20;5.60;;;;;;;18.04;69.60;94511.31;5129614;27;20185;-44
2023/05/18 09:08:57;;;;;;;5.70;5.20;;;;;;;18.00;69.60;94507.50;5129577;27;20296;-43
2023/05/18 09:11:26;;;;;;;5.23;4.73;;;;;;;18.03;69.58;94514.88;5131639;27;20204;-45
2023/05/18 09:13:52;;;;;;;6.27;5.03;;;;;;;17.79;69.62;94483.28;5131499;27;20193;-43
2023/05/18 09:16:19;;;;;;;7.27;5.10;;;;;;;18.00;69.45;94515.25;5132395;27;20693;-44
2023/05/18 09:18:46;;;;;;;5.77;5.00;;;;;;;17.84;69.43;94487.09;5131376;27;20200;-43
2023/05/18 09:21:13;;;;;;;6.77;5.47;;;;;;;18.03;69.46;94525.22;5130001;27;20196;-43
2023/05/18 09:23:41;;;;;;;8.27;5.53;;;;;;;18.06;69.44;94527.47;5129838;27;20188;-42
2023/05/18 09:26:10;;;;;;;5.20;4.70;;;;;;;18.05;69.47;94531.84;5129064;27;20601;-43
2023/05/18 09:28:38;;;;;;;5.90;5.10;;;;;;;18.08;69.35;94528.06;5128962;27;20208;-44
2023/05/18 09:31:07;;;;;;;6.07;4.77;;;;;;;18.09;69.20;94531.44;5129254;27;20204;-45
2023/05/18 09:33:36;;;;;;;6.80;5.23;;;;;;;18.13;69.18;94536.06;5128987;27;20227;-45
2023/05/18 09:36:05;;;;;;;7.10;5.20;;;;;;;18.15;68.96;94528.91;5129126;27;20291;-44
2023/05/18 09:38:37;;;;;;;4.80;4.40;;;;;;;18.17;68.99;94529.50;5129069;27;20208;-44
2023/05/18 09:41:12;;;;;;;6.87;4.60;;;;;;;18.20;69.00;94538.69;5128868;27;20271;-45
2023/05/18 09:43:39;;;;;;;5.80;4.80;;;;;;;18.22;68.95;94537.53;5128740;27;20188;-44
2023/05/18 09:46:08;;;;;;;6.03;5.13;;;;;;;18.19;68.87;94532.72;5129404;27;20200;-43
2023/05/18 09:48:36;;;;;;;5.50;5.00;;;;;;;18.19;68.87;94530.13;5131123;27;20196;-44
2023/05/18 09:51:05;;;;;;;8.77;5.17;;;;;;;18.26;68.84;94536.19;5129932;27;20323;-48
2023/05/18 09:53:36;;;;;;;5.20;4.53;;;;;;;18.28;68.54;94536.78;5129202;27;20220;-44
2023/05/18 09:56:10;;;;;;;7.17;5.00;;;;;;;18.32;68.68;94544.16;5126979;27;20201;-42
2023/05/18 09:58:38;;;;;;;7.30;4.70;;;;;;;18.28;68.41;94536.78;5128868;27;20188;-46
2023/05/18 10:01:05;;;;;;;6.00;4.50;;;;;;;18.36;68.60;94543.59;5128984;27;20197;-43
2023/05/18 10:03:35;;;;;;;6.03;4.53;;;;;;;18.39;68.48;94548.38;5128605;27;20191;-46
2023/05/18 10:06:06;;;;;;;9.10;4.60;;;;;;;18.42;68.39;94547.22;5128506;27;20234;-44
2023/05/18 10:08:33;;;;;;;7.57;4.30;;;;;;;18.28;68.35;94523.81;5127927;27;20253;-45
2023/05/18 10:11:00;;;;;;;4.83;4.40;;;;;;;18.46;68.34;94551.81;5128800;27;20204;-44
2023/05/18 10:13:30;;;;;;;6.10;4.50;;;;;;;18.49;68.19;94558.44;5128809;27;20265;-44
2023/05/18 10:15:58;;;;;;;6.37;4.63;;;;;;;18.54;68.17;94559.44;5129023;27;20288;-45
2023/05/18 10:18:26;;;;;;;4.53;4.13;;;;;;;18.38;67.92;94536.44;5127712;27;20185;-42
2023/05/18 10:20:55;;;;;;;6.23;4.37;;;;;;;18.56;67.79;94561.84;5128710;27;20185;-47
2023/05/18 10:23:23;;;;;;;5.53;4.33;;;;;;;18.59;67.86;94561.47;5128013;27;20212;-45
2023/05/18 10:25:51;;;;;;;6.63;4.53;;;;;;;18.59;67.87;94561.47;5129025;27;20281;-45
2023/05/18 10:28:24;;;;;;;6.07;3.93;;;;;;;18.63;67.72;94560.09;5129491;27;20184;-44
2023/05/18 10:30:54;;;;;;;5.27;4.77;;;;;;;18.65;67.66;94565.09;5127598;27;20234;-44
2023/05/18 10:33:23;;;;;;;6.03;4.80;;;;;;;18.63;67.61;94567.06;5126903;27;20221;-44
2023/05/18 10:35:51;;;;;;;4.90;4.33;;;;;;;18.63;67.37;94565.28;5128015;27;20224;-45
2023/05/18 10:38:23;;;;;;;4.90;4.40;;;;;;;18.68;67.27;94570.69;5128009;27;20180;-45
2023/05/18 10:40:51;;;;;;;5.13;4.27;;;;;;;18.70;67.35;94576.53;5127878;27;20211;-46
2023/05/18 10:43:26;;;;;;;4.57;4.13;;;;;;;18.72;67.34;94576.31;5128946;27;20286;-46
2023/05/18 10:45:55;;;;;;;5.33;4.77;;;;;;;18.58;67.29;94548.72;5130415;27;20188;-44
2023/05/18 10:48:23;;;;;;;5.03;4.53;;;;;;;18.78;67.10;94583.31;5128850;27;20189;-44
2023/05/18 10:50:52;;;;;;;5.57;4.13;;;;;;;18.79;67.27;94579.75;5127206;27;20260;-44
2023/05/18 10:53:21;;;;;;;6.03;4.50;;;;;;;18.85;66.99;94580.78;5127302;27;20192;-44
2023/05/18 10:55:48;;;;;;;6.67;4.50;;;;;;;18.86;66.83;94588.34;5127194;27;20291;-45
2023/05/18 10:58:18;;;;;;;7.77;4.40;;;;;;;18.86;66.74;94597.91;5126386;27;20245;-47
2023/05/18 11:00:50;;;;;;;6.90;4.53;;;;;;;18.83;66.85;94583.56;5126544;27;20255;-44
2023/05/18 11:03:19;;;;;;;9.37;4.67;;;;;;;18.74;66.77;94580.34;5127213;27;20184;-43
2023/05/18 11:05:50;;;;;;;5.80;4.30;;;;;;;18.81;66.70;94593.31;5127429;27;20184;-45
2023/05/18 11:08:26;;;;;;;4.37;3.93;;;;;;;18.85;66.70;94596.31;5126917;27;20194;-43
2023/05/18 11:11:00;;;;;;;4.70;4.07;;;;;;;18.86;66.66;94596.13;5126715;27;20242;-45
2023/05/18 11:13:29;;;;;;;4.67;3.73;;;;;;;18.86;66.54;94596.13;5126943;27;20195;-45
2023/05/18 11:16:04;;;;;;;7.70;4.83;;;;;;;18.88;66.37;94601.94;5126973;27;20192;-43
2023/05/18 11:18:51;;;;;;;5.13;4.37;;;;;;;18.84;66.36;94597.31;5124906;27;20732;-47
2023/05/18 11:21:30;;;;;;;4.70;4.17;;;;;;;18.76;66.22;94593.09;5127284;27;20188;-46
2023/05/18 11:24:19;;;;;;;7.77;4.70;;;;;;;18.84;66.44;94605.09;5126795;27;20202;-46
2023/05/18 11:26:47;;;;;;;5.50;3.73;;;;;;;18.57;65.95;94568.63;5127218;27;20224;-45
2023/05/18 11:29:18;;;;;;;4.60;4.07;;;;;;;18.88;65.93;94621.88;5127096;27;20192;-44
2023/05/18 11:31:46;;;;;;;7.27;3.60;;;;;;;18.84;65.93;94599.91;5127098;27;20191;-43
2023/05/18 11:34:44;;;;;;;5.40;4.23;;;;;;;18.89;66.05;94615.69;5126540;27;20196;-45
2023/05/18 11:37:12;;;;;;;4.60;4.20;;;;;;;18.75;66.20;94592.28;5126934;27;20239;-45
2023/05/18 11:39:40;;;;;;;4.47;4.10;;;;;;;18.88;65.94;94611.50;5127492;27;20192;-46